createdAt,value
2022-09-15T00:01:23.314Z,100.00
2022-09-15T00:03:51.997Z,100.00
2022-09-15T00:06:22.093Z,100.00
2022-09-15T00:08:50.666Z,100.00
2022-09-15T00:11:21.190Z,100.00
2022-09-15T00:13:50.726Z,100.00
2022-09-15T00:16:20.901Z,100.00
2022-09-15T00:18:49.582Z,100.00
2022-09-15T00:21:21.291Z,100.00
2022-09-15T00:23:51.344Z,100.00
2022-09-15T00:26:21.932Z,100.00
2022-09-15T00:28:50.875Z,100.00
2022-09-15T00:31:22.198Z,100.00
2022-09-15T00:33:52.425Z,100.00
2022-09-15T00:36:21.842Z,100.00
2022-09-15T00:38:51.765Z,100.00
2022-09-15T00:41:22.161Z,100.00
2022-09-15T00:43:53.638Z,100.00
2022-09-15T00:46:24.344Z,100.00
2022-09-15T00:48:57.312Z,100.00
2022-09-15T00:51:31.568Z,100.00
2022-09-15T00:54:03.210Z,100.00
2022-09-15T00:56:33.539Z,100.00
2022-09-15T00:59:05.242Z,100.00
2022-09-15T01:01:34.247Z,100.00
2022-09-15T01:04:03.255Z,100.00
2022-09-15T01:06:35.372Z,100.00
2022-09-15T01:09:09.071Z,100.00
2022-09-15T01:11:37.712Z,100.00
2022-09-15T01:14:06.356Z,100.00
2022-09-15T01:16:43.118Z,100.00
2022-09-15T01:19:27.838Z,100.00
2022-09-15T01:22:01.298Z,100.00
2022-09-15T01:24:49.932Z,100.00
2022-09-15T01:27:42.659Z,100.00
2022-09-15T01:30:16.442Z,100.00
2022-09-15T01:33:05.158Z,100.00
2022-09-15T01:35:40.006Z,100.00
2022-09-15T01:38:12.481Z,100.00
2022-09-15T01:40:45.916Z,100.00
2022-09-15T01:43:16.820Z,100.00
2022-09-15T01:45:48.013Z,100.00
2022-09-15T01:48:19.043Z,100.00
2022-09-15T01:50:49.673Z,100.00
2022-09-15T01:53:20.637Z,100.00
2022-09-15T01:55:53.878Z,100.00
2022-09-15T01:58:22.664Z,100.00
2022-09-15T02:00:55.069Z,100.00
2022-09-15T02:03:27.440Z,100.00
2022-09-15T02:06:02.649Z,100.00
2022-09-15T02:08:37.074Z,100.00
2022-09-15T02:11:13.815Z,100.00
2022-09-15T02:13:48.524Z,100.00
2022-09-15T02:16:21.858Z,100.00
2022-09-15T02:19:11.087Z,100.00
2022-09-15T02:21:55.159Z,99.19
2022-09-15T02:24:28.758Z,98.94
2022-09-15T02:26:57.646Z,100.00
2022-09-15T02:29:28.279Z,99.57
2022-09-15T02:32:02.584Z,99.96
2022-09-15T02:34:36.618Z,100.00
2022-09-15T02:37:05.680Z,99.42
2022-09-15T02:39:36.200Z,98.44
2022-09-15T02:42:05.016Z,97.46
2022-09-15T02:44:33.574Z,98.83
2022-09-15T02:47:03.863Z,97.74
2022-09-15T02:49:32.405Z,97.55
2022-09-15T02:52:00.962Z,96.68
2022-09-15T02:54:29.509Z,97.18
2022-09-15T02:57:00.037Z,98.45
2022-09-15T02:59:48.633Z,98.83
2022-09-15T03:02:20.273Z,99.75
2022-09-15T03:04:49.508Z,98.79
2022-09-15T03:07:18.623Z,98.95
2022-09-15T03:09:47.205Z,99.27
2022-09-15T03:12:16.009Z,96.61
2022-09-15T03:14:44.571Z,96.86
2022-09-15T03:17:13.281Z,97.77
2022-09-15T03:19:43.347Z,97.97
2022-09-15T03:22:11.978Z,97.81
2022-09-15T03:24:42.302Z,98.32
2022-09-15T03:27:10.853Z,98.46
2022-09-15T03:29:39.416Z,97.41
2022-09-15T03:32:07.950Z,97.17
2022-09-15T03:34:36.529Z,97.66
2022-09-15T03:37:06.862Z,96.82
2022-09-15T03:39:35.418Z,97.07
2022-09-15T03:42:04.261Z,96.27
2022-09-15T03:44:32.802Z,97.29
2022-09-15T03:47:01.362Z,98.04
2022-09-15T03:49:29.965Z,97.60
2022-09-15T03:51:59.154Z,94.94
2022-09-15T03:54:29.126Z,95.95
2022-09-15T03:56:57.814Z,96.39
2022-09-15T03:59:26.443Z,97.00
2022-09-15T04:01:55.067Z,96.09
2022-09-15T04:04:23.640Z,95.52
2022-09-15T04:06:52.183Z,95.21
2022-09-15T04:09:21.434Z,93.27
2022-09-15T04:11:51.348Z,92.05
2022-09-15T04:14:19.929Z,91.95
2022-09-15T04:16:48.537Z,90.64
2022-09-15T04:19:17.095Z,91.10
2022-09-15T04:21:47.355Z,90.16
2022-09-15T04:24:15.900Z,90.06
2022-09-15T04:26:45.151Z,90.39
2022-09-15T04:29:17.473Z,90.36
2022-09-15T04:31:46.716Z,90.28
2022-09-15T04:34:15.407Z,89.72
2022-09-15T04:36:44.033Z,89.62
2022-09-15T04:39:12.616Z,89.16
2022-09-15T04:41:41.181Z,90.03
2022-09-15T04:44:09.772Z,88.15
2022-09-15T04:46:39.794Z,88.34
2022-09-15T04:49:08.403Z,88.61
2022-09-15T04:51:36.946Z,88.93
2022-09-15T04:54:05.899Z,87.91
2022-09-15T04:56:34.599Z,88.01
2022-09-15T04:59:04.312Z,87.88
2022-09-15T05:01:35.991Z,87.70
2022-09-15T05:04:06.041Z,87.73
2022-09-15T05:06:35.767Z,86.93
2022-09-15T05:09:10.079Z,86.62
2022-09-15T05:11:39.337Z,86.33
2022-09-15T05:14:09.571Z,86.26
2022-09-15T05:16:40.012Z,85.50
2022-09-15T05:19:10.822Z,85.70
2022-09-15T05:21:39.474Z,86.21
2022-09-15T05:24:08.384Z,86.36
2022-09-15T05:26:37.281Z,85.71
2022-09-15T05:29:05.881Z,85.67
2022-09-15T05:31:34.964Z,85.64
2022-09-15T05:34:05.742Z,86.53
2022-09-15T05:36:35.693Z,87.16
2022-09-15T05:39:04.498Z,87.39
2022-09-15T05:41:33.224Z,86.75
2022-09-15T05:44:01.803Z,87.21
2022-09-15T05:46:30.992Z,87.29
2022-09-15T05:48:59.756Z,86.68
2022-09-15T05:51:30.119Z,86.82
2022-09-15T05:54:00.076Z,86.12
2022-09-15T05:56:28.883Z,86.94
2022-09-15T05:58:57.755Z,87.06
2022-09-15T06:01:28.488Z,87.17
2022-09-15T06:03:57.768Z,87.36
2022-09-15T06:06:27.029Z,87.23
2022-09-15T06:08:58.751Z,87.14
2022-09-15T06:11:30.851Z,87.04
2022-09-15T06:14:00.194Z,86.76
2022-09-15T06:16:29.012Z,86.84
2022-09-15T06:18:59.948Z,87.57
2022-09-15T06:21:29.911Z,87.11
2022-09-15T06:24:00.479Z,86.77
2022-09-15T06:26:30.837Z,86.90
2022-09-15T06:29:01.181Z,87.08
2022-09-15T06:31:32.338Z,86.99
2022-09-15T06:34:01.351Z,87.29
2022-09-15T06:36:31.276Z,87.39
2022-09-15T06:38:59.904Z,88.14
2022-09-15T06:41:47.096Z,87.72
2022-09-15T06:44:18.948Z,88.37
2022-09-15T06:46:47.690Z,88.54
2022-09-15T06:49:16.316Z,89.50
2022-09-15T06:51:44.910Z,90.06
2022-09-15T06:54:14.548Z,91.03
2022-09-15T06:56:44.561Z,91.33
2022-09-15T06:59:13.547Z,91.11
2022-09-15T07:01:42.586Z,91.20
2022-09-15T07:04:11.346Z,90.64
2022-09-15T07:06:40.541Z,92.91
2022-09-15T07:09:09.264Z,91.83
2022-09-15T07:11:37.885Z,92.83
2022-09-15T07:14:07.964Z,94.67
2022-09-15T07:16:36.626Z,97.15
2022-09-15T07:19:05.869Z,98.45
2022-09-15T07:21:35.408Z,97.50
2022-09-15T07:24:07.217Z,98.47
2022-09-15T07:26:36.366Z,100.00
2022-09-15T07:29:07.650Z,100.00
2022-09-15T07:31:38.433Z,100.00
2022-09-15T07:34:07.922Z,100.00
2022-09-15T07:36:36.572Z,100.00
2022-09-15T07:39:06.406Z,100.00
2022-09-15T07:41:35.943Z,100.00
2022-09-15T07:44:04.578Z,100.00
2022-09-15T07:46:34.610Z,100.00
2022-09-15T07:49:03.995Z,100.00
2022-09-15T07:51:32.784Z,100.00
2022-09-15T07:54:01.657Z,100.00
2022-09-15T07:56:30.312Z,100.00
2022-09-15T07:58:59.294Z,100.00
2022-09-15T08:01:27.990Z,99.26
2022-09-15T08:03:58.070Z,99.17
2022-09-15T08:06:27.695Z,99.85
2022-09-15T08:09:00.357Z,98.89
2022-09-15T08:11:29.566Z,99.07
2022-09-15T08:14:02.265Z,100.00
2022-09-15T08:16:30.990Z,100.00
2022-09-15T08:19:01.324Z,100.00
2022-09-15T08:21:30.006Z,100.00
2022-09-15T08:24:01.070Z,100.00
2022-09-15T08:26:30.995Z,100.00
2022-09-15T08:29:00.577Z,100.00
2022-09-15T08:31:29.513Z,100.00
2022-09-15T08:33:58.487Z,100.00
2022-09-15T08:36:28.624Z,100.00
2022-09-15T08:38:57.391Z,100.00
2022-09-15T08:41:29.084Z,100.00
2022-09-15T08:44:01.866Z,100.00
2022-09-15T08:46:35.940Z,100.00
2022-09-15T08:49:09.398Z,100.00
2022-09-15T08:51:42.683Z,100.00
2022-09-15T08:54:16.629Z,100.00
2022-09-15T08:56:45.648Z,100.00
2022-09-15T08:59:18.468Z,100.00
2022-09-15T09:02:15.517Z,100.00
2022-09-15T09:04:59.546Z,100.00
2022-09-15T09:07:43.197Z,100.00
2022-09-15T09:10:16.106Z,100.00
2022-09-15T09:13:01.405Z,100.00
2022-09-15T09:15:41.222Z,100.00
2022-09-15T09:18:23.413Z,100.00
2022-09-15T09:20:59.495Z,100.00
2022-09-15T09:23:31.062Z,100.00
2022-09-15T09:26:01.907Z,100.00
2022-09-15T09:28:32.164Z,100.00
2022-09-15T09:31:05.631Z,100.00
2022-09-15T09:33:42.839Z,100.00
2022-09-15T09:36:15.534Z,100.00
2022-09-15T09:38:46.878Z,100.00
2022-09-15T09:41:18.157Z,100.00
2022-09-15T09:43:48.880Z,100.00
2022-09-15T09:46:19.221Z,100.00
2022-09-15T09:48:50.325Z,100.00
2022-09-15T09:51:31.773Z,100.00
2022-09-15T09:54:12.758Z,100.00
2022-09-15T09:56:41.642Z,100.00
2022-09-15T09:59:42.624Z,99.17
2022-09-15T10:02:16.888Z,98.39
2022-09-15T10:04:46.783Z,98.40
2022-09-15T10:07:16.782Z,99.35
2022-09-15T10:09:55.660Z,99.53
2022-09-15T10:12:27.963Z,100.00
2022-09-15T10:14:58.701Z,100.00
2022-09-15T10:17:29.234Z,99.15
2022-09-15T10:19:58.902Z,97.64
2022-09-15T10:22:30.568Z,97.79
2022-09-15T10:25:01.784Z,95.69
2022-09-15T10:27:32.759Z,96.31
2022-09-15T10:32:35.756Z,97.09
2022-09-15T10:35:09.588Z,99.55
2022-09-15T10:37:48.539Z,98.54
2022-09-15T10:40:40.494Z,99.89
2022-09-15T10:43:20.656Z,99.75
2022-09-15T10:45:50.601Z,99.85
2022-09-15T10:48:35.843Z,99.93
2022-09-15T10:51:16.039Z,100.00
2022-09-15T10:54:10.832Z,100.00
2022-09-15T10:56:42.712Z,100.00
2022-09-15T10:59:25.782Z,100.00
2022-09-15T11:02:21.295Z,100.00
2022-09-15T11:05:08.232Z,100.00
2022-09-15T11:07:44.990Z,99.92
2022-09-15T11:10:19.646Z,99.32
2022-09-15T11:13:00.343Z,98.93
2022-09-15T11:15:38.019Z,98.89
2022-09-15T11:18:25.401Z,98.73
2022-09-15T11:21:12.854Z,97.72
2022-09-15T11:23:44.675Z,99.02
2022-09-15T11:26:17.117Z,98.76
2022-09-15T11:28:50.441Z,98.04
2022-09-15T11:31:22.854Z,98.04
2022-09-15T11:33:55.408Z,98.52
2022-09-15T11:36:29.402Z,97.91
2022-09-15T11:39:01.861Z,98.06
2022-09-15T11:41:35.472Z,95.79
2022-09-15T11:44:20.798Z,97.34
2022-09-15T11:47:24.198Z,97.69
2022-09-15T11:49:57.074Z,96.06
2022-09-15T11:52:43.924Z,97.60
2022-09-15T11:55:22.712Z,98.02
2022-09-15T11:57:55.417Z,96.73
2022-09-15T12:00:25.487Z,98.35
2022-09-15T12:02:59.244Z,97.35
2022-09-15T12:05:33.019Z,98.62
2022-09-15T12:08:06.654Z,96.38
2022-09-15T12:10:38.180Z,97.51
2022-09-15T12:13:06.897Z,95.07
2022-09-15T12:15:38.476Z,94.10
2022-09-15T12:18:37.068Z,94.37
2022-09-15T12:21:09.148Z,95.49
2022-09-15T12:23:41.387Z,97.11
2022-09-15T12:26:17.477Z,95.33
2022-09-15T12:29:05.900Z,96.19
2022-09-15T12:31:37.726Z,97.82
2022-09-15T12:34:23.093Z,96.56
2022-09-15T12:36:53.674Z,96.69
2022-09-15T12:39:37.347Z,96.79
2022-09-15T12:42:12.402Z,94.91
2022-09-15T12:44:43.526Z,92.45
2022-09-15T12:47:28.336Z,94.01
2022-09-15T12:50:01.011Z,90.68
2022-09-15T12:52:30.258Z,91.08
2022-09-15T12:55:03.429Z,91.07
2022-09-15T12:57:33.908Z,90.40
2022-09-15T13:00:31.456Z,91.45
2022-09-15T13:03:02.566Z,89.20
2022-09-15T13:05:53.139Z,86.29
2022-09-15T13:08:45.527Z,88.57
2022-09-15T13:11:17.131Z,91.33
2022-09-15T13:13:48.793Z,88.06
2022-09-15T13:16:21.324Z,89.08
2022-09-15T13:19:05.521Z,85.49
2022-09-15T13:21:36.507Z,88.44
2022-09-15T13:24:08.353Z,86.99
2022-09-15T13:26:38.176Z,85.62
2022-09-15T13:29:07.612Z,85.89
2022-09-15T13:31:41.545Z,83.17
2022-09-15T13:38:15.015Z,86.52
2022-09-15T13:41:35.454Z,87.38
2022-09-15T13:44:37.533Z,81.51
2022-09-15T13:47:22.526Z,82.92
2022-09-15T13:49:56.740Z,78.88
2022-09-15T13:52:38.473Z,83.42
2022-09-15T13:55:24.097Z,84.92
2022-09-15T14:00:48.480Z,80.83
2022-09-15T14:03:19.995Z,86.97
2022-09-15T14:05:50.116Z,83.98
2022-09-15T14:08:21.806Z,85.85
2022-09-15T14:10:54.464Z,81.28
2022-09-15T14:13:24.798Z,84.71
2022-09-15T14:16:01.515Z,82.85
2022-09-15T14:18:31.320Z,85.91
2022-09-15T14:21:03.236Z,84.11
2022-09-15T14:23:32.643Z,82.77
2022-09-15T14:26:02.670Z,76.17
2022-09-15T14:28:33.270Z,75.31
2022-09-15T14:31:02.402Z,78.98
2022-09-15T14:33:38.049Z,79.59
2022-09-15T14:36:23.520Z,78.08
2022-09-15T14:39:18.600Z,77.43
2022-09-15T14:41:47.872Z,74.38
2022-09-15T14:47:27.995Z,75.03
2022-09-15T14:50:07.572Z,77.09
2022-09-15T14:52:40.986Z,78.64
2022-09-15T14:55:14.855Z,75.86
2022-09-15T14:57:50.177Z,73.44
2022-09-15T15:00:23.612Z,75.18
2022-09-15T15:03:02.844Z,78.03
2022-09-15T15:05:34.630Z,78.38
2022-09-15T15:08:06.376Z,79.45
2022-09-15T15:10:35.990Z,76.81
2022-09-15T15:13:07.681Z,74.74
2022-09-15T15:15:38.856Z,79.37
2022-09-15T15:18:38.144Z,80.98
2022-09-15T15:21:08.154Z,77.23
2022-09-15T15:23:46.904Z,75.18
2022-09-15T15:26:27.447Z,76.21
2022-09-15T15:28:56.150Z,79.19
2022-09-15T15:31:26.719Z,75.05
2022-09-15T15:33:59.159Z,79.22
2022-09-15T15:36:28.962Z,76.64
2022-09-15T15:39:00.504Z,79.89
2022-09-15T15:41:30.607Z,75.58
2022-09-15T15:44:03.186Z,74.32
2022-09-15T15:46:50.194Z,82.74
2022-09-15T15:49:20.891Z,83.24
2022-09-15T15:51:50.221Z,78.15
2022-09-15T15:54:20.528Z,76.01
2022-09-15T15:56:49.235Z,81.76
2022-09-15T15:59:18.876Z,78.82
2022-09-15T16:01:50.985Z,79.80
2022-09-15T16:04:19.857Z,80.25
2022-09-15T16:06:48.984Z,75.25
2022-09-15T16:09:20.681Z,74.67
2022-09-15T16:11:49.664Z,76.95
2022-09-15T16:14:18.384Z,72.63
2022-09-15T16:16:47.140Z,74.42
2022-09-15T16:19:15.851Z,74.45
2022-09-15T16:21:45.695Z,74.34
2022-09-15T16:24:15.888Z,69.50
2022-09-15T16:26:47.804Z,68.51
2022-09-15T16:29:18.367Z,73.52
2022-09-15T16:31:47.292Z,76.21
2022-09-15T16:34:18.040Z,75.07
2022-09-15T16:36:46.911Z,71.89
2022-09-15T16:39:15.617Z,75.94
2022-09-15T16:41:44.511Z,76.09
2022-09-15T16:44:19.383Z,77.53
2022-09-15T16:46:48.101Z,76.99
2022-09-15T16:49:16.881Z,76.41
2022-09-15T16:51:45.816Z,79.30
2022-09-15T16:54:16.556Z,79.49
2022-09-15T16:56:46.329Z,79.44
2022-09-15T16:59:15.061Z,79.32
2022-09-15T17:01:45.200Z,79.04
2022-09-15T17:04:16.757Z,78.77
2022-09-15T17:06:45.489Z,80.80
2022-09-15T17:09:14.188Z,82.45
2022-09-15T17:11:43.049Z,82.94
2022-09-15T17:14:15.136Z,83.28
2022-09-15T17:16:47.353Z,82.49
2022-09-15T17:19:16.377Z,83.63
2022-09-15T17:21:45.204Z,83.81
2022-09-15T17:24:13.897Z,82.79
2022-09-15T17:26:42.570Z,82.00
2022-09-15T17:29:11.255Z,83.39
2022-09-15T17:31:40.002Z,84.75
2022-09-15T17:34:14.324Z,84.20
2022-09-15T17:36:43.059Z,84.77
2022-09-15T17:39:11.818Z,86.41
2022-09-15T17:41:40.540Z,87.61
2022-09-15T17:44:10.334Z,87.79
2022-09-15T17:46:39.085Z,86.89
2022-09-15T17:49:07.832Z,86.12
2022-09-15T17:51:38.025Z,83.94
2022-09-15T17:54:07.451Z,84.04
2022-09-15T17:56:36.198Z,84.51
2022-09-15T17:59:04.983Z,86.92
2022-09-15T18:01:33.915Z,82.11
2022-09-15T18:04:02.990Z,82.55
2022-09-15T18:06:33.426Z,83.17
2022-09-15T18:09:03.572Z,84.88
2022-09-15T18:11:32.269Z,83.80
2022-09-15T18:14:00.895Z,84.69
2022-09-15T18:16:29.627Z,83.83
2022-09-15T18:18:58.302Z,81.25
2022-09-15T18:21:28.588Z,79.22
2022-09-15T18:23:57.425Z,79.48
2022-09-15T18:26:27.428Z,79.10
2022-09-15T18:28:56.266Z,78.66
2022-09-15T18:31:25.030Z,78.05
2022-09-15T18:33:53.868Z,78.03
2022-09-15T18:36:22.589Z,79.97
2022-09-15T18:38:51.280Z,82.80
2022-09-15T18:41:20.412Z,83.22
2022-09-15T18:43:50.545Z,84.52
2022-09-15T18:46:20.373Z,84.03
2022-09-15T18:48:49.281Z,82.04
2022-09-15T18:51:24.175Z,81.32
2022-09-15T18:53:58.418Z,83.27
2022-09-15T18:56:27.154Z,83.17
2022-09-15T18:58:57.772Z,83.16
2022-09-15T19:01:26.776Z,85.18
2022-09-15T19:03:55.758Z,83.88
2022-09-15T19:06:24.698Z,84.52
2022-09-15T19:08:53.545Z,83.83
2022-09-15T19:11:22.500Z,86.77
2022-09-15T19:13:53.512Z,85.37
2022-09-15T19:16:34.510Z,85.99
2022-09-15T19:19:14.724Z,85.63
2022-09-15T19:21:43.378Z,84.53
2022-09-15T19:24:12.508Z,85.67
2022-09-15T19:26:42.266Z,86.01
2022-09-15T19:29:11.504Z,85.19
2022-09-15T19:31:43.119Z,84.02
2022-09-15T19:34:12.057Z,83.91
2022-09-15T19:36:40.809Z,84.04
2022-09-15T19:39:09.565Z,83.90
2022-09-15T19:41:38.233Z,83.39
2022-09-15T19:44:10.566Z,83.46
2022-09-15T19:46:39.797Z,83.81
2022-09-15T19:49:10.118Z,83.50
2022-09-15T19:51:38.856Z,84.14
2022-09-15T19:54:07.735Z,84.25
2022-09-15T19:56:36.615Z,84.28
2022-09-15T19:59:07.299Z,85.81
2022-09-15T20:01:37.255Z,86.07
2022-09-15T20:04:05.952Z,86.96
2022-09-15T20:06:37.009Z,85.98
2022-09-15T20:09:06.342Z,86.99
2022-09-15T20:11:35.762Z,86.14
2022-09-15T20:14:06.456Z,86.59
2022-09-15T20:16:35.207Z,87.70
2022-09-15T20:19:05.253Z,86.86
2022-09-15T20:21:52.270Z,87.59
2022-09-15T20:24:21.674Z,87.96
2022-09-15T20:26:50.675Z,88.73
2022-09-15T20:29:20.020Z,88.75
2022-09-15T20:31:48.941Z,89.29
2022-09-15T20:34:18.588Z,89.00
2022-09-15T20:36:48.916Z,88.82
2022-09-15T20:39:22.098Z,89.58
2022-09-15T20:41:50.981Z,90.17
2022-09-15T20:44:19.960Z,90.87
2022-09-15T20:46:48.637Z,90.01
2022-09-15T20:49:17.454Z,89.64
2022-09-15T20:51:46.493Z,90.24
2022-09-15T20:54:16.588Z,89.93
2022-09-15T20:56:45.226Z,89.52
2022-09-15T20:59:15.150Z,89.40
2022-09-15T21:01:44.509Z,90.60
2022-09-15T21:04:13.589Z,90.30
2022-09-15T21:06:44.674Z,88.88
2022-09-15T21:09:14.060Z,89.14
2022-09-15T21:11:44.318Z,89.40
2022-09-15T21:14:14.512Z,90.17
2022-09-15T21:16:43.351Z,90.02
2022-09-15T21:19:15.035Z,89.94
2022-09-15T21:21:43.734Z,90.21
2022-09-15T21:24:12.413Z,90.32
2022-09-15T21:26:56.457Z,91.06
2022-09-15T21:29:27.584Z,91.74
2022-09-15T21:31:57.655Z,91.09
2022-09-15T21:34:28.173Z,90.94
2022-09-15T21:36:57.869Z,90.74
2022-09-15T21:39:26.560Z,90.64
2022-09-15T21:41:55.432Z,91.62
2022-09-15T21:44:24.130Z,91.58
2022-09-15T21:46:54.719Z,91.77
2022-09-15T21:49:23.487Z,92.02
2022-09-15T21:51:52.125Z,91.97
2022-09-15T21:54:21.025Z,92.14
2022-09-15T21:56:50.599Z,91.92
2022-09-15T21:59:19.532Z,91.90
2022-09-15T22:01:48.563Z,91.51
2022-09-15T22:04:18.746Z,90.31
2022-09-15T22:06:50.254Z,90.66
2022-09-15T22:09:21.235Z,91.09
2022-09-15T22:11:54.170Z,91.05
2022-09-15T22:14:22.847Z,91.72
2022-09-15T22:16:51.854Z,90.96
2022-09-15T22:19:22.569Z,91.56
2022-09-15T22:21:51.247Z,91.35
2022-09-15T22:24:19.904Z,91.49
2022-09-15T22:26:48.940Z,90.94
2022-09-15T22:29:17.672Z,91.54
2022-09-15T22:31:46.787Z,91.59
2022-09-15T22:34:15.609Z,91.93
2022-09-15T22:36:45.800Z,91.99
2022-09-15T22:39:14.849Z,91.07
2022-09-15T22:41:43.643Z,91.84
2022-09-15T22:44:18.914Z,91.92
2022-09-15T22:46:49.637Z,92.22
2022-09-15T22:49:18.905Z,92.35
2022-09-15T22:51:48.951Z,92.07
2022-09-15T22:54:17.700Z,92.07
2022-09-15T22:56:46.888Z,91.82
2022-09-15T22:59:15.664Z,91.96
2022-09-15T23:01:44.937Z,92.59
2022-09-15T23:04:13.654Z,92.14
2022-09-15T23:06:42.338Z,92.57
2022-09-15T23:09:13.024Z,92.91
2022-09-15T23:11:41.923Z,91.79
2022-09-15T23:14:14.929Z,91.50
2022-09-15T23:16:44.257Z,91.75
2022-09-15T23:19:13.590Z,92.29
2022-09-15T23:21:42.330Z,93.44
2022-09-15T23:24:13.958Z,93.51
2022-09-15T23:26:42.568Z,93.26
2022-09-15T23:29:11.287Z,92.31
2022-09-15T23:31:40.003Z,92.23
2022-09-15T23:34:08.750Z,91.70
2022-09-15T23:36:37.739Z,91.95
2022-09-15T23:39:06.703Z,91.63
2022-09-15T23:41:38.905Z,91.94
2022-09-15T23:44:07.821Z,91.80
2022-09-15T23:46:36.617Z,91.95
2022-09-15T23:49:05.481Z,92.40
2022-09-15T23:51:34.636Z,92.51
2022-09-15T23:54:04.609Z,93.17
2022-09-15T23:56:33.718Z,92.63
2022-09-15T23:59:03.707Z,92.49
